Time;durP1;ratioP1;P1;durP2;ratioP2;P2;SDS_P1;SDS_P2;PMS_P1;PMS_P2;Temp;Humidity;BMP_temperature;BMP_pressure;BME280_temperature;BME280_humidity;BME280_pressure;Samples;Min_cycle;Max_cycle;Signal;HPM_P1;HPM_P2
2023/03/31 00:00:48;;;;;;;3.33;2.40;;;9.90;48.20;;;;;;5113880;28;20500;-90
2023/03/31 00:03:20;;;;;;;2.95;2.45;;;9.90;48.20;;;;;;5113756;28;20020;-88
2023/03/31 00:05:47;;;;;;;3.20;2.30;;;9.90;48.20;;;;;;5113630;28;20032;-89
2023/03/31 00:08:13;;;;;;;4.65;2.70;;;9.90;48.20;;;;;;5113816;28;20112;-90
2023/03/31 00:10:45;;;;;;;3.65;2.38;;;9.90;48.30;;;;;;5113864;28;20857;-90
2023/03/31 00:13:11;;;;;;;3.40;2.42;;;9.90;48.20;;;;;;5112389;28;20020;-90
2023/03/31 00:15:37;;;;;;;3.28;2.30;;;9.80;48.20;;;;;;5113501;28;20059;-90
2023/03/31 00:18:03;;;;;;;3.33;2.58;;;9.80;48.20;;;;;;5113759;28;20027;-89
2023/03/31 00:20:32;;;;;;;3.90;2.60;;;9.80;48.20;;;;;;5095539;28;20111;-88
2023/03/31 00:23:00;;;;;;;3.28;2.33;;;9.80;48.30;;;;;;5113734;28;20024;-90
2023/03/31 00:25:26;;;;;;;3.78;2.35;;;9.80;48.30;;;;;;5114141;28;20521;-90
2023/03/31 00:27:52;;;;;;;3.92;2.45;;;9.80;48.30;;;;;;5117574;28;20465;-90
2023/03/31 00:30:18;;;;;;;2.67;2.20;;;9.80;48.30;;;;;;5117227;28;20477;-89
2023/03/31 00:32:44;;;;;;;3.83;2.47;;;9.80;48.30;;;;;;5117295;28;20066;-89
2023/03/31 00:35:10;;;;;;;3.08;2.50;;;9.80;48.40;;;;;;5117211;28;20059;-89
2023/03/31 00:37:36;;;;;;;3.30;2.70;;;9.80;48.40;;;;;;5117510;28;20100;-90
2023/03/31 00:40:08;;;;;;;3.67;2.50;;;9.70;48.30;;;;;;5117315;28;20417;-90
2023/03/31 00:42:41;;;;;;;3.17;2.60;;;9.80;48.40;;;;;;5117295;28;20046;-90
2023/03/31 00:45:13;;;;;;;3.03;2.40;;;9.80;48.40;;;;;;5117069;28;20024;-90
2023/03/31 00:48:12;;;;;;;2.60;2.40;;;9.80;48.40;;;;;;5121198;28;20027;-89
2023/03/31 00:50:47;;;;;;;2.85;2.45;;;9.80;48.50;;;;;;5116366;28;20043;-90
2023/03/31 00:53:17;;;;;;;3.03;2.42;;;9.70;48.40;;;;;;5098876;28;20358;-89
2023/03/31 00:55:47;;;;;;;3.28;2.50;;;9.70;48.40;;;;;;5116994;28;20073;-88
2023/03/31 00:58:18;;;;;;;3.28;2.40;;;9.70;48.40;;;;;;5117293;28;20019;-90
2023/03/31 01:00:46;;;;;;;2.75;2.30;;;9.70;48.40;;;;;;5098793;28;20062;-89
2023/03/31 01:03:14;;;;;;;3.55;2.50;;;9.70;48.50;;;;;;5117090;28;20023;-89
2023/03/31 01:05:50;;;;;;;3.13;2.70;;;9.70;48.50;;;;;;5098600;28;20032;-90
2023/03/31 01:08:23;;;;;;;3.70;2.60;;;9.70;48.50;;;;;;5100443;28;20032;-89
2023/03/31 01:10:52;;;;;;;3.47;2.40;;;9.70;48.50;;;;;;5116680;28;20107;-88
2023/03/31 01:13:18;;;;;;;3.22;2.55;;;9.70;48.50;;;;;;5098532;28;20398;-90
2023/03/31 01:15:44;;;;;;;3.78;2.60;;;9.70;48.60;;;;;;5116837;28;20042;-89
2023/03/31 01:18:12;;;;;;;3.45;2.25;;;9.70;48.50;;;;;;5116672;28;20020;-90
2023/03/31 01:21:09;;;;;;;3.67;2.65;;;9.70;48.60;;;;;;5098988;28;20036;-89
2023/03/31 01:23:56;;;;;;;2.90;2.50;;;9.70;48.60;;;;;;5116569;28;20057;-91
2023/03/31 01:26:40;;;;;;;3.67;2.72;;;9.70;48.60;;;;;;5116514;28;20031;-90
2023/03/31 01:29:12;;;;;;;3.45;2.42;;;9.70;48.60;;;;;;5119031;28;20027;-89
2023/03/31 01:32:00;;;;;;;3.08;2.35;;;9.70;48.60;;;;;;5127642;28;20039;-90
2023/03/31 01:34:48;;;;;;;3.80;2.30;;;9.70;48.60;;;;;;5119763;28;20081;-90
2023/03/31 01:37:32;;;;;;;3.60;2.58;;;9.70;48.70;;;;;;5100037;28;20044;-90
2023/03/31 01:40:08;;;;;;;3.43;2.60;;;9.70;48.70;;;;;;5095632;28;20024;-90
2023/03/31 01:43:11;;;;;;;3.33;2.47;;;9.70;48.60;;;;;;5095847;28;20023;-89
2023/03/31 01:45:59;;;;;;;3.03;2.40;;;9.70;48.70;;;;;;5095705;28;20028;-90
2023/03/31 01:48:50;;;;;;;2.65;2.35;;;9.70;48.70;;;;;;5095727;28;20048;-90
2023/03/31 01:51:24;;;;;;;2.85;2.42;;;9.70;48.70;;;;;;5095589;28;20028;-90
2023/03/31 01:54:02;;;;;;;2.42;2.20;;;9.70;48.70;;;;;;5074475;28;20119;-90
2023/03/31 01:56:34;;;;;;;2.83;2.38;;;9.70;48.70;;;;;;5074572;28;20039;-90
2023/03/31 01:59:23;;;;;;;2.88;2.13;;;9.70;48.70;;;;;;5074706;28;20032;-89
2023/03/31 02:01:57;;;;;;;3.55;2.40;;;9.70;48.70;;;;;;5073808;28;20040;-89
2023/03/31 02:04:45;;;;;;;3.55;2.65;;;9.70;48.70;;;;;;5076091;28;20039;-89
2023/03/31 02:07:18;;;;;;;2.47;2.20;;;9.70;49.30;;;;;;5095394;28;20024;-89
2023/03/31 02:09:49;;;;;;;3.28;2.33;;;9.70;48.70;;;;;;5095495;28;20035;-90
2023/03/31 02:12:17;;;;;;;2.53;2.33;;;9.70;48.70;;;;;;5095281;28;20021;-91
2023/03/31 02:14:46;;;;;;;3.38;2.70;;;9.70;48.70;;;;;;5095803;28;20026;-89
2023/03/31 02:17:17;;;;;;;2.95;2.60;;;9.70;48.80;;;;;;5095334;28;20074;-90
2023/03/31 02:19:47;;;;;;;2.50;2.30;;;9.70;48.80;;;;;;5077347;28;20447;-89
2023/03/31 02:22:16;;;;;;;2.60;2.30;;;9.70;48.80;;;;;;5076722;28;20024;-90
2023/03/31 02:24:43;;;;;;;3.45;2.70;;;9.70;48.80;;;;;;5094858;28;20536;-89
2023/03/31 02:27:25;;;;;;;3.58;2.45;;;9.70;48.80;;;;;;5095055;28;20535;-90
2023/03/31 02:29:52;;;;;;;2.65;2.35;;;9.70;48.90;;;;;;5095504;28;20028;-89
2023/03/31 02:32:30;;;;;;;2.58;2.35;;;9.70;48.80;;;;;;5094663;28;20366;-90
2023/03/31 02:34:57;;;;;;;2.60;2.30;;;9.70;48.80;;;;;;5094736;28;20032;-90
2023/03/31 02:37:23;;;;;;;2.90;2.55;;;9.70;48.80;;;;;;5094013;28;20139;-91
2023/03/31 02:39:53;;;;;;;2.83;2.42;;;9.70;48.90;;;;;;5114807;28;20475;-90
2023/03/31 02:42:19;;;;;;;4.35;2.63;;;9.70;48.90;;;;;;5114639;28;20042;-91
2023/03/31 02:44:45;;;;;;;2.85;2.55;;;9.70;48.90;;;;;;5114811;28;20067;-90
2023/03/31 02:47:14;;;;;;;2.53;2.33;;;9.70;48.90;;;;;;5114774;28;20031;-89
2023/03/31 02:49:44;;;;;;;2.70;2.40;;;9.70;48.90;;;;;;5114251;28;20047;-89
2023/03/31 02:52:10;;;;;;;3.00;2.50;;;9.70;48.90;;;;;;5114850;28;20024;-88
2023/03/31 02:54:51;;;;;;;2.60;2.40;;;9.70;48.90;;;;;;5114693;28;20385;-88
2023/03/31 02:57:25;;;;;;;2.72;2.40;;;9.70;48.90;;;;;;5114739;28;20080;-89
2023/03/31 03:00:06;;;;;;;;;;;9.70;48.90;;;;;;5116775;28;20072;-89
2023/03/31 03:02:35;;;;;;;;;;;9.70;49.20;;;;;;5117512;28;19911;-89
2023/03/31 03:05:09;;;;;;;;;;;9.70;49.20;;;;;;5114800;28;20357;-90
2023/03/31 03:07:45;;;;;;;;;;;9.70;49.20;;;;;;5115519;28;19912;-89
2023/03/31 03:10:14;;;;;;;;;;;9.70;49.10;;;;;;5115309;28;19903;-90
2023/03/31 03:12:43;;;;;;;;;;;9.70;49.10;;;;;;5114718;28;19956;-89
2023/03/31 03:15:09;;;;;;;;;;;9.80;49.20;;;;;;5114540;28;19911;-90
2023/03/31 03:17:38;;;;;;;;;;;9.70;49.10;;;;;;5114877;28;19904;-90
2023/03/31 03:20:08;;;;;;;;;;;9.70;49.10;;;;;;5114792;28;20305;-89
2023/03/31 03:22:34;;;;;;;;;;;9.80;49.10;;;;;;5114951;28;19903;-91
2023/03/31 03:25:00;;;;;;;;;;;9.80;49.10;;;;;;5114708;28;19908;-89
2023/03/31 03:27:25;;;;;;;;;;;9.70;49.00;;;;;;5114884;28;19908;-90
2023/03/31 03:29:51;;;;;;;;;;;9.80;49.10;;;;;;5118806;28;20345;-90
2023/03/31 03:32:16;;;;;;;;;;;9.80;49.10;;;;;;5114541;28;19994;-90
2023/03/31 03:34:42;;;;;;;;;;;9.80;49.70;;;;;;5115199;28;19912;-89
2023/03/31 03:37:08;;;;;;;;;;;9.80;49.10;;;;;;5098916;28;19970;-89
2023/03/31 03:39:33;;;;;;;;;;;9.80;49.10;;;;;;5076502;28;19955;-89
2023/03/31 03:41:59;;;;;;;;;;;9.80;49.10;;;;;;5095273;28;20366;-89
2023/03/31 03:44:24;;;;;;;;;;;9.80;49.10;;;;;;5094168;28;20014;-90
2023/03/31 03:46:51;;;;;;;;;;;9.80;49.10;;;;;;5094261;28;19920;-90
2023/03/31 03:49:17;;;;;;;;;;;9.80;49.10;;;;;;5098425;28;19927;-89
2023/03/31 03:51:42;;;;;;;;;;;9.80;49.10;;;;;;5081206;28;19926;-89
2023/03/31 03:54:08;;;;;;;;;;;9.80;49.00;;;;;;5094391;28;19907;-91
2023/03/31 03:56:33;;;;;;;;;;;9.80;49.00;;;;;;5094454;28;19908;-89
2023/03/31 03:58:59;;;;;;;;;;;9.80;49.00;;;;;;5094147;28;19904;-89
2023/03/31 04:01:24;;;;;;;;;;;9.80;49.10;;;;;;5085269;28;19912;-89
2023/03/31 04:03:50;;;;;;;;;;;9.90;49.10;;;;;;5078248;28;19904;-90
2023/03/31 04:06:16;;;;;;;;;;;9.80;49.00;;;;;;5077865;28;19915;-90
2023/03/31 04:08:41;;;;;;;;;;;9.90;49.10;;;;;;5077731;28;19904;-91
2023/03/31 04:11:25;;;;;;;;;;;9.90;49.00;;;;;;5077595;28;19958;-89
2023/03/31 04:13:50;;;;;;;;;;;9.90;49.10;;;;;;5077597;28;19975;-88
2023/03/31 04:16:16;;;;;;;;;;;9.90;49.10;;;;;;5080653;28;19912;-89
2023/03/31 04:18:41;;;;;;;;;;;9.90;49.10;;;;;;5077815;28;19904;-91
2023/03/31 04:21:11;;;;;;;;;;;9.90;49.00;;;;;;5086335;28;19915;-91
2023/03/31 04:23:37;;;;;;;;;;;9.90;49.00;;;;;;5097646;28;19904;-91
2023/03/31 04:26:07;;;;;;;;;;;9.90;49.00;;;;;;5089174;28;19919;-87
2023/03/31 04:28:36;;;;;;;;;;;10.00;49.00;;;;;;5059409;28;19991;-90
2023/03/31 04:31:05;;;;;;;;;;;10.00;49.00;;;;;;5064814;28;19908;-91
2023/03/31 04:33:32;;;;;;;;;;;10.00;48.90;;;;;;5069158;28;20269;-90
2023/03/31 04:36:05;;;;;;;;;;;10.00;48.90;;;;;;5087648;28;19924;-89
2023/03/31 04:38:32;;;;;;;;;;;10.00;48.90;;;;;;5079338;28;20358;-86
2023/03/31 04:40:58;;;;;;;;;;;10.10;49.00;;;;;;5090790;28;19904;-85
2023/03/31 04:43:24;;;;;;;;;;;10.10;48.90;;;;;;5059010;28;19931;-85
2023/03/31 04:45:49;;;;;;;;;;;10.10;48.90;;;;;;5076912;28;20417;-85
2023/03/31 04:48:15;;;;;;;;;;;10.10;48.90;;;;;;5076776;28;19915;-85
2023/03/31 04:50:40;;;;;;;;;;;10.10;48.90;;;;;;5076703;28;20425;-86
2023/03/31 04:53:06;;;;;;;;;;;10.10;48.90;;;;;;5076433;28;20251;-86
2023/03/31 04:55:32;;;;;;;;;;;10.10;48.90;;;;;;5076305;28;20305;-83
2023/03/31 04:57:57;;;;;;;;;;;10.20;48.90;;;;;;5085617;28;19991;-85
2023/03/31 05:00:23;;;;;;;;;;;10.20;48.90;;;;;;5089357;28;19912;-84
2023/03/31 05:02:48;;;;;;;;;;;10.20;49.00;;;;;;5058672;28;20374;-73
2023/03/31 05:05:14;;;;;;;;;;;10.20;48.90;;;;;;5076160;28;19912;-73
2023/03/31 05:07:40;;;;;;;;;;;10.20;48.90;;;;;;5076435;28;19961;-66
2023/03/31 05:10:06;;;;;;;;;;;10.20;49.10;;;;;;5076332;28;20327;-80
2023/03/31 05:12:38;;;;;;;;;;;10.30;52.20;;;;;;5057593;28;20001;-74
2023/03/31 05:15:04;;;;;;;;;;;10.30;52.20;;;;;;5058324;28;19958;-72
2023/03/31 05:17:30;;;;;;;;;;;10.40;51.70;;;;;;5083806;28;19904;-82
2023/03/31 05:19:56;;;;;;;;;;;10.40;51.80;;;;;;5103398;28;19941;-82
2023/03/31 05:22:21;;;;;;;;;;;10.50;51.60;;;;;;5085077;28;20370;-82
2023/03/31 05:24:47;;;;;;;;;;;10.50;51.50;;;;;;5077484;28;19908;-82
2023/03/31 05:27:12;;;;;;;;;;;10.60;51.50;;;;;;5076365;28;19912;-83
2023/03/31 05:29:38;;;;;;;;;;;10.60;51.40;;;;;;5090758;28;19915;-80
2023/03/31 05:32:04;;;;;;;;;;;10.60;51.10;;;;;;5096208;28;19991;-76
2023/03/31 05:34:29;;;;;;;;;;;10.70;51.10;;;;;;5095180;28;20349;-81
2023/03/31 05:36:55;;;;;;;;;;;10.70;50.90;;;;;;5095431;28;20365;-80
2023/03/31 05:39:20;;;;;;;;;;;10.70;50.90;;;;;;5094762;28;19904;-79
2023/03/31 05:41:46;;;;;;;;;;;10.80;50.90;;;;;;5095659;28;19904;-80
2023/03/31 05:44:11;;;;;;;;;;;10.80;50.80;;;;;;5076363;28;19955;-79
2023/03/31 05:46:37;;;;;;;;;;;10.80;50.70;;;;;;5095085;28;19919;-79
2023/03/31 05:49:03;;;;;;;;;;;10.80;50.60;;;;;;5095122;28;19904;-78
2023/03/31 05:51:28;;;;;;;;;;;10.90;50.50;;;;;;5094879;28;19911;-79
2023/03/31 05:53:54;;;;;;;;;;;10.90;50.40;;;;;;5095241;28;19911;-79
2023/03/31 05:56:21;;;;;;;;;;;10.90;50.40;;;;;;5094904;28;19910;-81
2023/03/31 05:58:46;;;;;;;;;;;11.00;50.40;;;;;;5077571;28;19992;-78
2023/03/31 06:01:13;;;;;;;;;;;11.00;50.30;;;;;;5095705;28;19947;-79
2023/03/31 06:03:42;;;;;;;;;;;11.00;50.20;;;;;;5095550;28;20418;-79
2023/03/31 06:06:09;;;;;;;;;;;11.10;50.20;;;;;;5095549;28;19966;-80
2023/03/31 06:08:35;;;;;;;;;;;11.10;50.10;;;;;;5096205;28;19904;-78
2023/03/31 06:11:07;;;;;;;;;;;11.20;50.00;;;;;;5096572;28;19904;-79
2023/03/31 06:13:33;;;;;;;;;;;11.20;50.00;;;;;;5077665;28;19911;-79
2023/03/31 06:15:59;;;;;;;;;;;11.20;49.90;;;;;;5095488;28;20260;-78
2023/03/31 06:18:29;;;;;;;;;;;11.30;49.90;;;;;;5095252;28;19943;-80
2023/03/31 06:20:54;;;;;;;;;;;11.20;49.80;;;;;;5095117;28;19995;-79
2023/03/31 06:23:21;;;;;;;;;;;11.30;49.80;;;;;;5094267;28;19940;-79
2023/03/31 06:25:47;;;;;;;;;;;11.30;49.80;;;;;;5076819;28;19915;-81
2023/03/31 06:28:12;;;;;;;;;;;11.30;49.70;;;;;;5095031;28;19912;-80
2023/03/31 06:30:38;;;;;;;;;;;11.40;49.70;;;;;;5095628;28;20314;-80
2023/03/31 06:33:03;;;;;;;;;;;11.40;49.60;;;;;;5095375;28;19946;-80
2023/03/31 06:35:29;;;;;;;;;;;11.40;49.60;;;;;;5095037;28;19908;-81
2023/03/31 06:37:55;;;;;;;;;;;11.50;49.60;;;;;;5077465;28;20049;-79
2023/03/31 06:40:20;;;;;;;;;;;11.50;49.60;;;;;;5095065;28;19961;-79
2023/03/31 06:42:46;;;;;;;;;;;11.50;49.50;;;;;;5094920;28;19904;-80
2023/03/31 06:45:11;;;;;;;;;;;11.60;49.50;;;;;;5076865;28;19972;-79
2023/03/31 06:47:37;;;;;;;;;;;11.60;49.40;;;;;;5094979;28;20320;-80
2023/03/31 06:50:03;;;;;;;;;;;11.70;49.40;;;;;;5094835;28;19910;-79
2023/03/31 06:52:29;;;;;;;;;;;11.70;49.30;;;;;;5095140;28;19904;-80
2023/03/31 06:54:55;;;;;;;;;;;11.80;49.20;;;;;;5095200;28;20003;-79
2023/03/31 06:57:20;;;;;;;;;;;11.80;49.20;;;;;;5095248;28;19935;-79
2023/03/31 06:59:46;;;;;;;;;;;11.90;49.20;;;;;;5094752;28;19986;-79
2023/03/31 07:02:11;;;;;;;;;;;11.90;49.10;;;;;;5094557;28;19904;-80
2023/03/31 07:04:37;;;;;;;;;;;11.90;49.00;;;;;;5076627;28;19912;-80
2023/03/31 07:07:02;;;;;;;;;;;12.00;49.00;;;;;;5094445;28;20265;-79
2023/03/31 07:09:28;;;;;;;;;;;12.00;48.90;;;;;;5094631;28;19915;-79
2023/03/31 07:11:53;;;;;;;;;;;12.10;49.00;;;;;;5094554;28;19904;-79
2023/03/31 07:14:19;;;;;;;;;;;12.20;48.90;;;;;;5094552;28;19911;-79
2023/03/31 07:16:45;;;;;;;;;;;12.20;48.90;;;;;;5094135;28;19914;-80
2023/03/31 07:19:10;;;;;;;;;;;12.20;48.80;;;;;;5075902;28;20291;-79
2023/03/31 07:21:36;;;;;;;;;;;12.20;48.80;;;;;;5094096;28;20380;-79
2023/03/31 07:24:03;;;;;;;;;;;12.30;48.80;;;;;;5094190;28;19915;-79
2023/03/31 07:26:28;;;;;;;;;;;12.30;48.70;;;;;;5094327;28;20002;-80
2023/03/31 07:28:56;;;;;;;;;;;12.40;48.70;;;;;;5094389;28;19904;-80
2023/03/31 07:31:21;;;;;;;;;;;12.40;48.60;;;;;;5076138;28;19911;-80
2023/03/31 07:33:47;;;;;;;;;;;12.50;48.60;;;;;;5094376;28;19904;-80
2023/03/31 07:36:13;;;;;;;;;;;12.50;48.50;;;;;;5093799;28;19927;-80
2023/03/31 07:38:40;;;;;;;;;;;12.50;48.50;;;;;;5094046;28;19908;-79
2023/03/31 07:41:08;;;;;;;;;;;12.60;48.50;;;;;;5094144;28;19904;-79
2023/03/31 07:43:34;;;;;;;;;;;12.60;48.40;;;;;;5076039;28;20273;-79
2023/03/31 07:45:59;;;;;;;;;;;12.60;48.40;;;;;;5094105;28;19915;-79
2023/03/31 07:48:27;;;;;;;;;;;12.60;48.30;;;;;;5093809;28;19915;-79
2023/03/31 07:50:53;;;;;;;;;;;12.60;48.30;;;;;;5094136;28;19911;-80
2023/03/31 07:53:19;;;;;;;;;;;12.70;48.30;;;;;;5094183;28;20264;-79
2023/03/31 07:55:46;;;;;;;;;;;12.70;48.30;;;;;;5075921;28;19911;-79
2023/03/31 07:58:11;;;;;;;;;;;12.70;48.30;;;;;;5093878;28;19957;-80
2023/03/31 08:00:37;;;;;;;;;;;12.70;48.30;;;;;;5094029;28;19904;-79
2023/03/31 08:03:02;;;;;;;;;;;12.70;48.30;;;;;;5093887;28;19958;-80
2023/03/31 08:05:28;;;;;;;;;;;12.80;48.30;;;;;;5093735;28;20097;-80
2023/03/31 08:07:53;;;;;;;;;;;12.80;48.30;;;;;;5094263;28;19915;-79
2023/03/31 08:10:21;;;;;;;;;;;12.80;48.30;;;;;;5093774;28;19956;-78
2023/03/31 08:12:46;;;;;;;;;;;12.80;48.30;;;;;;5093956;28;19904;-79
2023/03/31 08:15:12;;;;;;;;;;;12.80;48.20;;;;;;5075711;28;19973;-79
2023/03/31 08:17:38;;;;;;;;;;;12.80;48.20;;;;;;5093926;28;19976;-81
2023/03/31 08:20:06;;;;;;;;;;;12.90;48.20;;;;;;5093919;28;19904;-79
2023/03/31 08:22:32;;;;;;;;;;;12.90;48.10;;;;;;5093995;28;19911;-80
2023/03/31 08:24:57;;;;;;;;;;;12.90;48.10;;;;;;5093823;28;19912;-79
2023/03/31 08:27:24;;;;;;;;;;;13.00;48.10;;;;;;5093593;28;19950;-79
2023/03/31 08:29:50;;;;;;;;;;;13.00;48.00;;;;;;5093506;28;19911;-79
2023/03/31 08:32:16;;;;;;;;;;;13.10;48.00;;;;;;5075423;28;19908;-79
2023/03/31 08:34:41;;;;;;;;;;;13.10;48.00;;;;;;5093296;28;20011;-78
2023/03/31 08:37:08;;;;;;;;;;;13.10;48.00;;;;;;5093583;28;19916;-80
2023/03/31 08:39:36;;;;;;;;;;;13.10;48.00;;;;;;5093878;28;19938;-80
2023/03/31 08:42:04;;;;;;;;;;;13.10;47.90;;;;;;5093626;28;20372;-79
2023/03/31 08:44:41;;;;;;;;;;;13.20;47.90;;;;;;5093322;28;19929;-79
2023/03/31 08:47:12;;;;;;;;;;;13.20;47.90;;;;;;5095133;28;19931;-80
2023/03/31 08:49:48;;;;;;;;;;;13.20;47.90;;;;;;5097155;28;19904;-80
2023/03/31 08:52:15;;;;;;;;;;;13.20;47.80;;;;;;5095829;28;20373;-81
2023/03/31 08:54:43;;;;;;;;;;;13.30;47.80;;;;;;5096350;28;19904;-80
2023/03/31 08:57:16;;;;;;;;;;;13.30;47.80;;;;;;5096644;28;19908;-79
2023/03/31 08:59:43;;;;;;;;;;;13.30;47.70;;;;;;5079055;28;19911;-79
2023/03/31 09:02:23;;;;;;;;;;;13.40;47.80;;;;;;5096837;28;20345;-79
2023/03/31 09:05:05;;;;;;;;;;;13.40;47.70;;;;;;5096868;28;19919;-80
2023/03/31 09:07:38;;;;;;;;;;;13.50;47.60;;;;;;5096479;28;20358;-81
2023/03/31 09:10:09;;;;;;;;;;;13.50;47.60;;;;;;5078511;28;19904;-80
2023/03/31 09:12:40;;;;;;;;;;;13.50;47.60;;;;;;5096964;28;20350;-80
2023/03/31 09:15:11;;;;;;;;;;;13.50;47.60;;;;;;5096618;28;19911;-79
2023/03/31 09:17:46;;;;;;;;;;;13.60;47.60;;;;;;5096303;28;19904;-79
2023/03/31 09:20:16;;;;;;;;;;;13.60;47.50;;;;;;5078386;28;19935;-78
2023/03/31 09:22:44;;;;;;;;;;;13.70;47.50;;;;;;5096469;28;19904;-78
2023/03/31 09:25:30;;;;;;;;;;;13.70;47.40;;;;;;5096353;28;20014;-79
2023/03/31 09:27:57;;;;;;;;;;;13.70;47.40;;;;;;5095700;28;19908;-80
2023/03/31 09:30:27;;;;;;;;;;;13.80;47.40;;;;;;5096010;28;19904;-80
2023/03/31 09:33:11;;;;;;;;;;;13.80;47.40;;;;;;5077945;28;19908;-80
2023/03/31 09:35:37;;;;;;;;;;;13.80;47.30;;;;;;5099639;28;20350;-80
2023/03/31 09:38:02;;;;;;;;;;;13.90;47.30;;;;;;5116655;28;19911;-80
2023/03/31 09:40:28;;;;;;;;;;;13.90;47.20;;;;;;5116625;28;19947;-80
2023/03/31 09:42:58;;;;;;;;;;;14.00;47.30;;;;;;5116038;28;20396;-78
2023/03/31 09:45:24;;;;;;;;;;;14.00;47.20;;;;;;5116385;28;20268;-79
2023/03/31 09:47:51;;;;;;;;;;;14.00;47.20;;;;;;5098514;28;19907;-80
2023/03/31 09:50:17;;;;;;;;;;;14.00;47.10;;;;;;5098192;28;20366;-80
2023/03/31 09:52:44;;;;;;;;;;;14.00;47.10;;;;;;5116265;28;20009;-81
2023/03/31 09:55:27;;;;;;;;;;;14.10;47.10;;;;;;5116269;28;20364;-81
2023/03/31 09:57:53;;;;;;;;;;;14.20;47.10;;;;;;5116176;28;19904;-79
2023/03/31 10:00:21;;;;;;;;;;;14.10;47.10;;;;;;5116391;28;19990;-79
2023/03/31 10:02:50;;;;;;;;;;;14.20;47.10;;;;;;5116109;28;19903;-80
2023/03/31 10:05:18;;;;;;;;;;;14.20;47.00;;;;;;5116054;28;20429;-79
2023/03/31 10:07:45;;;;;;;;;;;14.30;47.00;;;;;;5116061;28;19907;-80
2023/03/31 10:10:20;;;;;;;;;;;14.30;47.00;;;;;;5115553;28;20333;-80
2023/03/31 10:12:49;;;;;;;;;;;14.30;46.90;;;;;;5116178;28;19910;-81
2023/03/31 10:15:20;;;;;;;;;;;14.40;47.00;;;;;;5116021;28;20334;-80
2023/03/31 10:17:46;;;;;;;;;;;14.40;46.90;;;;;;5115804;28;19949;-80
2023/03/31 10:20:26;;;;;;;;;;;14.50;46.90;;;;;;5115789;28;20320;-80
2023/03/31 10:22:52;;;;;;;;;;;14.50;46.80;;;;;;5097681;28;20345;-80
2023/03/31 10:25:20;;;;;;;;;;;14.60;46.80;;;;;;5097329;28;19914;-80
2023/03/31 10:27:47;;;;;;;;;;;14.60;46.70;;;;;;5115416;28;19908;-79
2023/03/31 10:30:32;;;;;;;;;;;14.70;46.70;;;;;;5115567;28;19904;-80
2023/03/31 10:32:58;;;;;;;;;;;14.70;46.70;;;;;;5115905;28;20407;-80
2023/03/31 10:35:26;;;;;;;;;;;14.70;46.60;;;;;;5115407;28;19912;-80
2023/03/31 10:37:54;;;;;;;;;;;14.70;46.60;;;;;;5115951;28;20253;-80
2023/03/31 10:40:22;;;;;;;;;;;14.70;46.60;;;;;;5096899;28;20391;-80
2023/03/31 10:42:56;;;;;;;;;;;14.80;46.60;;;;;;5115384;28;19911;-80
2023/03/31 10:45:22;;;;;;;;;;;14.80;46.60;;;;;;5115110;28;20345;-80
2023/03/31 10:47:48;;;;;;;;;;;14.80;46.60;;;;;;5115574;28;19907;-81
2023/03/31 10:50:14;;;;;;;;;;;14.80;46.50;;;;;;5115313;28;20006;-80
2023/03/31 10:52:44;;;;;;;;;;;14.80;46.50;;;;;;5114982;28;20417;-80
2023/03/31 10:55:11;;;;;;;;;;;14.90;46.50;;;;;;5114840;28;19904;-80
2023/03/31 10:57:46;;;;;;;;;;;14.90;46.50;;;;;;5114799;28;19904;-81
2023/03/31 11:00:23;;;;;;;;;;;14.90;46.50;;;;;;5115058;28;19910;-79
2023/03/31 11:03:03;;;;;;;;;;;15.00;46.50;;;;;;5096668;28;19926;-81
2023/03/31 11:05:28;;;;;;;;;;;14.90;46.40;;;;;;5114656;28;19938;-80
2023/03/31 11:07:57;;;;;;;;;;;15.00;46.40;;;;;;5115152;28;20357;-79
2023/03/31 11:10:41;;;;;;;;;;;15.10;46.40;;;;;;5113951;28;19908;-80
2023/03/31 11:13:15;;;;;;;;;;;15.10;46.40;;;;;;5114840;28;20386;-80
2023/03/31 11:16:06;;;;;;;;;;;15.10;46.30;;;;;;5114755;28;20369;-80
2023/03/31 11:18:31;;;;;;;;;;;15.20;46.30;;;;;;5114319;28;19904;-79
2023/03/31 11:21:00;;;;;;;;;;;15.20;46.30;;;;;;5114600;28;19904;-80
2023/03/31 11:23:49;;;;;;;;;;;15.20;46.20;;;;;;5114491;28;19911;-79
2023/03/31 11:26:22;;;;;;;;;;;15.20;46.20;;;;;;5114548;28;19919;-79
2023/03/31 11:28:53;;;;;;;;;;;15.20;46.20;;;;;;5114137;28;19904;-80
2023/03/31 11:31:27;;;;;;;;;;;15.20;46.20;;;;;;5114387;28;19908;-80
2023/03/31 11:34:00;;;;;;;;;;;15.20;46.20;;;;;;5096281;28;19907;-80
2023/03/31 11:36:40;;;;;;;;;;;15.20;46.20;;;;;;5086698;28;19927;-80
2023/03/31 11:39:18;;;;;;;;;;;15.20;46.20;;;;;;5076251;28;20265;-81
2023/03/31 11:41:48;;;;;;;;;;;15.20;46.20;;;;;;5093966;28;19900;-80
2023/03/31 11:44:15;;;;;;;;;;;15.20;46.20;;;;;;5075532;28;19912;-80
2023/03/31 11:46:47;;;;;;;;;;;15.20;46.20;;;;;;5094234;28;19908;-81
2023/03/31 11:49:15;;;;;;;;;;;15.20;46.10;;;;;;5093738;28;20346;-80
2023/03/31 11:51:47;;;;;;;;;;;15.20;46.10;;;;;;5093776;28;19926;-80
2023/03/31 11:54:41;;;;;;;;;;;15.20;46.10;;;;;;5093840;28;19947;-79
2023/03/31 11:57:25;;;;;;;;;;;15.20;46.10;;;;;;5054312;28;19927;-79
2023/03/31 11:59:56;;;;;;;;;;;15.10;46.10;;;;;;5093718;28;19950;-80
2023/03/31 12:02:26;;;;;;;;;;;15.10;46.10;;;;;;5093546;28;19904;-81
2023/03/31 12:04:54;;;;;;;;;;;15.00;46.20;;;;;;5093630;28;19908;-80
2023/03/31 12:07:39;;;;;;;;;;;14.90;46.20;;;;;;5075543;28;20014;-80
2023/03/31 12:10:16;;;;;;;;;;;14.90;46.30;;;;;;5093969;28;19904;-80
2023/03/31 12:12:43;;;;;;;;;;;14.80;46.40;;;;;;5093578;28;20034;-79
2023/03/31 12:15:21;;;;;;;;;;;14.80;46.40;;;;;;5093607;28;19911;-80
2023/03/31 12:17:51;;;;;;;;;;;14.80;46.50;;;;;;5094108;28;19919;-80
2023/03/31 12:20:22;;;;;;;;;;;14.80;46.50;;;;;;5093784;28;19911;-81
2023/03/31 12:22:48;;;;;;;;;;;14.70;46.50;;;;;;5096794;28;20282;-80
2023/03/31 12:25:15;;;;;;;;;;;14.70;46.60;;;;;;5097458;28;20252;-81
2023/03/31 12:27:41;;;;;;;;;;;14.70;46.60;;;;;;5097225;28;19908;-81
2023/03/31 12:30:07;;;;;;;;;;;14.70;46.60;;;;;;5097456;28;19939;-80
2023/03/31 12:32:36;;;;;;;;;;;14.70;46.60;;;;;;5097280;28;19973;-79
2023/03/31 12:35:04;;;;;;;;;;;14.70;46.60;;;;;;5097454;28;19908;-80
2023/03/31 12:37:30;;;;;;;;;;;14.70;46.60;;;;;;5115832;28;19958;-81
2023/03/31 12:40:08;;;;;;;;;;;14.70;46.60;;;;;;5117579;28;19929;-80
2023/03/31 12:42:46;;;;;;;;;;;14.70;46.60;;;;;;5099482;28;19911;-81
2023/03/31 12:45:22;;;;;;;;;;;14.60;46.60;;;;;;5117590;28;19908;-80
2023/03/31 12:47:48;;;;;;;;;;;14.60;46.60;;;;;;5117466;28;19911;-80
2023/03/31 12:50:13;;;;;;;;;;;14.60;46.70;;;;;;5099164;28;20391;-81
2023/03/31 12:52:42;;;;;;;;;;;14.50;46.70;;;;;;5117123;28;20407;-80
2023/03/31 12:55:08;;;;;;;;;;;14.50;46.70;;;;;;5117430;28;19904;-80
2023/03/31 12:57:34;;;;;;;;;;;14.50;46.80;;;;;;5117174;28;19904;-80
2023/03/31 13:00:11;;;;;;;;;;;14.50;46.80;;;;;;5117408;28;19910;-81
2023/03/31 13:02:38;;;;;;;;;;;14.50;46.90;;;;;;5117371;28;19911;-83
2023/03/31 13:05:22;;;;;;;;;;;14.40;46.90;;;;;;5116872;28;19959;-82
2023/03/31 13:07:47;;;;;;;;;;;14.40;46.90;;;;;;5117620;28;19977;-80
2023/03/31 13:10:13;;;;;;;;;;;14.40;46.90;;;;;;5117123;28;20349;-81
2023/03/31 13:12:39;;;;;;;;;;;14.40;46.90;;;;;;5116956;28;19957;-80
2023/03/31 13:15:12;;;;;;;;;;;14.30;46.90;;;;;;5117133;28;19911;-80
2023/03/31 13:17:38;;;;;;;;;;;14.30;47.00;;;;;;5117146;28;19946;-81
2023/03/31 13:20:16;;;;;;;;;;;14.30;47.00;;;;;;5116785;28;19955;-81
2023/03/31 13:22:43;;;;;;;;;;;14.30;47.00;;;;;;5116763;28;20277;-82
2023/03/31 13:25:28;;;;;;;;;;;14.20;47.00;;;;;;5098225;28;19908;-80
2023/03/31 13:27:54;;;;;;;;;;;14.20;47.00;;;;;;5116592;28;19907;-80
2023/03/31 13:30:52;;;;;;;;;;;14.20;47.10;;;;;;5117353;28;19904;-81
2023/03/31 13:33:20;;;;;;;;;;;14.20;47.10;;;;;;5059674;28;19930;-81
2023/03/31 13:35:51;;;;;;;;;;;14.20;47.10;;;;;;5116393;28;19919;-81
2023/03/31 13:38:23;;;;;;;;;;;14.20;47.10;;;;;;5097745;28;19904;-79
2023/03/31 13:40:48;;;;;;;;;;;14.20;47.10;;;;;;5116490;28;19941;-81
2023/03/31 13:43:17;;;;;;;;;;;14.20;47.20;;;;;;5116638;28;20288;-80
2023/03/31 13:46:15;;;;;;;;;;;14.10;47.80;;;;;;5097766;28;19907;-81
2023/03/31 13:48:49;;;;;;;;;;;14.10;47.20;;;;;;5059975;28;20356;-81
2023/03/31 13:51:15;;;;;;;;;;;14.10;47.20;;;;;;5116215;28;19910;-81
2023/03/31 13:53:56;;;;;;;;;;;14.10;47.20;;;;;;5116062;28;19903;-81
2023/03/31 13:56:34;;;;;;;;;;;14.00;47.30;;;;;;5116090;28;19928;-80
2023/03/31 13:59:35;;;;;;;;;;;14.00;47.30;;;;;;5116000;28;20039;-82
2023/03/31 14:02:12;;;;;;;;;;;13.90;47.30;;;;;;5013169;28;19912;-81
2023/03/31 14:04:46;;;;;;;;;;;13.90;47.40;;;;;;5102690;28;19911;-81
2023/03/31 14:07:14;;;;;;;;;;;13.90;47.40;;;;;;5116055;28;19919;-82
2023/03/31 14:09:45;;;;;;;;;;;13.80;48.00;;;;;;5115760;28;19903;-79
2023/03/31 14:12:22;;;;;;;;;;;13.80;47.50;;;;;;5097737;28;19998;-80
2023/03/31 14:14:51;;;;;;;;;;;13.70;47.60;;;;;;5115793;28;19904;-81
2023/03/31 14:17:17;;;;;;;;;;;13.70;47.60;;;;;;5115601;28;19904;-81